Time;durP1;ratioP1;P1;durP2;ratioP2;P2;SDS_P1;SDS_P2;PMS_P1;PMS_P2;Temp;Humidity;BMP_temperature;BMP_pressure;BME280_temperature;BME280_humidity;BME280_pressure;Samples;Min_cycle;Max_cycle;Signal;HPM_P1;HPM_P2
2022/06/07 00:02:26;;;;;;;13.07;4.07;;;12.80;99.90;;;;;;5107544;28;20122;-83
2022/06/07 00:04:53;;;;;;;8.48;4.25;;;13.10;99.90;;;;;;5089948;28;20054;-82
2022/06/07 00:07:20;;;;;;;16.08;5.05;;;12.40;99.90;;;;;;5107284;28;20486;-84
2022/06/07 00:09:46;;;;;;;7.90;4.55;;;12.70;99.90;;;;;;5107930;28;20470;-83
2022/06/07 00:12:12;;;;;;;6.57;3.83;;;12.40;99.90;;;;;;5089634;28;20131;-84
2022/06/07 00:14:38;;;;;;;5.60;3.67;;;12.40;99.90;;;;;;5089177;28;20039;-84
2022/06/07 00:17:05;;;;;;;5.82;3.53;;;12.40;99.90;;;;;;5106040;28;20517;-84
2022/06/07 00:19:32;;;;;;;6.53;3.70;;;12.40;99.90;;;;;;5108171;28;20051;-84
2022/06/07 00:21:58;;;;;;;5.97;3.45;;;13.00;99.90;;;;;;5109074;28;20047;-84
2022/06/07 00:24:24;;;;;;;7.57;4.22;;;12.70;99.90;;;;;;5124515;28;20046;-84
2022/06/07 00:26:50;;;;;;;11.13;3.72;;;12.70;99.90;;;;;;5107708;28;20054;-84
2022/06/07 00:29:16;;;;;;;7.85;4.25;;;12.00;99.90;;;;;;5107960;28;20099;-84
2022/06/07 00:31:42;;;;;;;7.05;3.88;;;12.40;99.90;;;;;;5107839;28;20501;-84
2022/06/07 00:34:09;;;;;;;9.15;3.92;;;12.40;99.90;;;;;;5107459;28;20048;-83
2022/06/07 00:36:35;;;;;;;10.27;4.15;;;12.40;99.90;;;;;;5093636;28;20087;-84
2022/06/07 00:39:02;;;;;;;8.80;4.63;;;13.30;99.90;;;;;;5113128;28;20031;-83
2022/06/07 00:41:27;;;;;;;9.98;4.13;;;12.90;99.90;;;;;;5093884;28;20042;-83
2022/06/07 00:44:15;;;;;;;7.90;4.22;;;12.30;99.90;;;;;;5094910;28;20047;-84
2022/06/07 00:46:43;;;;;;;10.13;4.78;;;12.30;99.90;;;;;;5093432;28;20044;-84
2022/06/07 00:49:10;;;;;;;9.70;4.90;;;12.30;99.90;;;;;;5077241;28;20410;-84
2022/06/07 00:51:36;;;;;;;9.00;4.88;;;12.30;99.90;;;;;;5113118;28;20039;-84
2022/06/07 00:54:02;;;;;;;9.30;4.90;;;12.30;99.90;;;;;;5111584;28;20438;-85
2022/06/07 00:56:29;;;;;;;9.65;5.18;;;13.50;99.90;;;;;;5094881;28;20402;-83
2022/06/07 00:58:54;;;;;;;12.43;6.05;;;12.60;99.90;;;;;;5076093;28;20051;-83
2022/06/07 01:01:21;;;;;;;11.23;5.97;;;12.70;99.90;;;;;;5111916;28;20047;-83
2022/06/07 01:03:47;;;;;;;24.13;5.97;;;12.60;99.90;;;;;;5076349;28;20057;-84
2022/06/07 01:11:47;;;;;;;12.43;5.70;;;12.30;99.90;;;;;;5111712;28;20065;-84
2022/06/07 01:14:13;;;;;;;11.30;6.72;;;12.30;99.90;;;;;;5094256;28;20456;-84
2022/06/07 01:16:41;;;;;;;9.65;5.63;;;12.30;99.90;;;;;;5092772;28;20447;-84
2022/06/07 01:19:06;;;;;;;13.15;5.25;;;12.30;99.90;;;;;;5093123;28;20104;-84
2022/06/07 01:21:36;;;;;;;9.32;4.82;;;12.40;99.90;;;;;;5094344;28;20066;-83
2022/06/07 01:24:02;;;;;;;13.57;6.40;;;12.70;99.90;;;;;;5111395;28;20044;-83
2022/06/07 01:26:28;;;;;;;11.27;5.20;;;12.40;99.90;;;;;;5112153;28;20434;-83
2022/06/07 01:28:54;;;;;;;9.70;4.78;;;12.40;99.90;;;;;;5092877;28;20036;-85
2022/06/07 01:31:19;;;;;;;9.98;4.70;;;12.40;99.90;;;;;;5076829;28;20039;-84
2022/06/07 01:33:45;;;;;;;10.10;5.50;;;12.40;99.90;;;;;;5111522;28;20063;-84
2022/06/07 01:36:13;;;;;;;9.57;5.13;;;12.40;99.90;;;;;;5111120;28;20051;-81
2022/06/07 01:38:41;;;;;;;13.25;5.88;;;12.40;99.90;;;;;;5112405;28;20040;-82
2022/06/07 01:43:53;;;;;;;9.63;5.18;;;12.40;99.90;;;;;;5111906;28;20146;-82
2022/06/07 01:46:20;;;;;;;11.20;5.65;;;12.40;99.90;;;;;;5110342;28;20055;-83
2022/06/07 01:48:47;;;;;;;7.28;4.97;;;13.10;99.90;;;;;;5111767;28;20419;-83
2022/06/07 01:51:14;;;;;;;9.07;4.75;;;12.40;99.90;;;;;;5092767;28;20444;-83
2022/06/07 01:53:40;;;;;;;8.63;5.57;;;12.40;99.90;;;;;;5091919;28;20056;-84
2022/06/07 01:56:12;;;;;;;10.30;5.45;;;12.50;99.90;;;;;;5073157;28;20109;-84
2022/06/07 01:58:39;;;;;;;8.10;4.72;;;13.50;99.90;;;;;;5071525;28;20538;-84
2022/06/07 02:01:05;;;;;;;7.82;4.47;;;12.80;99.90;;;;;;5072901;28;20039;-84
2022/06/07 02:03:32;;;;;;;9.48;5.00;;;12.50;99.90;;;;;;5089869;28;20225;-83
2022/06/07 02:06:01;;;;;;;9.35;4.45;;;13.40;99.90;;;;;;5073028;28;20044;-84
2022/06/07 02:08:27;;;;;;;9.95;5.03;;;12.60;99.90;;;;;;5056247;28;20048;-85
2022/06/07 02:10:54;;;;;;;12.40;4.72;;;12.90;99.90;;;;;;5089395;28;20079;-84
2022/06/07 02:13:20;;;;;;;9.88;4.85;;;12.80;99.90;;;;;;5091603;28;20047;-84
2022/06/07 02:15:49;;;;;;;9.55;5.25;;;12.50;99.90;;;;;;5073278;28;20047;-85
2022/06/07 02:18:16;;;;;;;12.07;5.03;;;12.60;99.90;;;;;;5092825;28;20075;-84
2022/06/07 02:20:42;;;;;;;8.50;4.80;;;12.80;99.90;;;;;;5072889;28;20082;-85
2022/06/07 02:23:08;;;;;;;8.13;5.03;;;12.60;99.90;;;;;;5055418;28;20063;-84
2022/06/07 02:25:55;;;;;;;12.10;4.93;;;12.80;99.90;;;;;;5089173;28;20123;-86
2022/06/07 02:28:24;;;;;;;5.75;4.53;;;12.60;99.90;;;;;;5088060;28;20052;-85
2022/06/07 02:30:52;;;;;;;14.70;5.20;;;12.70;99.90;;;;;;5090204;28;20036;-85
2022/06/07 02:33:18;;;;;;;13.10;5.68;;;12.60;99.90;;;;;;5069953;28;20498;-86
2022/06/07 02:35:45;;;;;;;8.73;5.38;;;12.60;99.90;;;;;;5089313;28;20531;-85
2022/06/07 02:38:12;;;;;;;9.20;5.10;;;13.30;99.90;;;;;;5069604;28;20170;-85
2022/06/07 02:40:37;;;;;;;11.85;5.10;;;13.50;99.90;;;;;;5088820;28;20094;-85
2022/06/07 02:43:04;;;;;;;11.18;5.32;;;12.60;99.90;;;;;;5070730;28;20044;-84
2022/06/07 02:45:30;;;;;;;10.10;5.30;;;12.70;99.90;;;;;;5103218;28;20040;-84
2022/06/07 02:47:56;;;;;;;13.40;5.35;;;13.30;99.90;;;;;;5070663;28;20162;-84
2022/06/07 02:50:22;;;;;;;7.57;5.25;;;12.70;99.90;;;;;;5069546;28;20139;-84
2022/06/07 02:52:48;;;;;;;9.18;5.35;;;12.70;99.90;;;;;;5089232;28;20040;-85
2022/06/07 02:55:14;;;;;;;12.98;5.90;;;12.70;99.90;;;;;;5049531;28;20048;-84
2022/06/07 02:57:41;;;;;;;9.32;5.82;;;13.30;99.90;;;;;;5089750;28;20039;-84
2022/06/07 03:00:09;;;;;;;11.85;6.72;;;13.40;99.90;;;;;;5108343;28;20568;-84
2022/06/07 03:02:35;;;;;;;9.18;5.05;;;12.60;99.90;;;;;;5107891;28;20958;-83
2022/06/07 03:05:02;;;;;;;12.30;6.03;;;12.60;99.90;;;;;;5109201;28;20054;-84
2022/06/07 03:07:27;;;;;;;12.23;6.47;;;12.60;99.90;;;;;;5107417;28;20055;-83
2022/06/07 03:09:53;;;;;;;11.80;5.82;;;12.70;99.90;;;;;;5109119;28;20152;-83
2022/06/07 03:12:19;;;;;;;14.80;6.15;;;12.60;99.90;;;;;;5107547;28;20119;-83
2022/06/07 03:14:44;;;;;;;13.13;5.80;;;12.60;99.90;;;;;;5108624;28;20660;-83
2022/06/07 03:17:10;;;;;;;12.95;6.50;;;12.60;99.90;;;;;;5109324;28;20518;-84
2022/06/07 03:19:36;;;;;;;13.77;5.82;;;12.60;99.90;;;;;;5072211;28;20044;-84
2022/06/07 03:22:02;;;;;;;12.65;4.93;;;12.60;99.90;;;;;;5108541;28;20163;-83
2022/06/07 03:24:27;;;;;;;16.90;6.10;;;12.60;99.90;;;;;;5088518;28;20043;-83
2022/06/07 03:26:54;;;;;;;7.68;5.47;;;13.20;99.90;;;;;;5108288;28;20077;-83
2022/06/07 03:29:20;;;;;;;10.75;6.32;;;13.60;99.90;;;;;;5088516;28;20055;-83
2022/06/07 03:31:46;;;;;;;12.20;6.00;;;12.70;99.90;;;;;;5089487;28;20055;-83
2022/06/07 03:34:12;;;;;;;9.02;5.90;;;13.70;99.90;;;;;;5090598;28;20047;-83
2022/06/07 03:36:38;;;;;;;11.07;5.60;;;12.70;99.90;;;;;;5108795;28;20052;-83
2022/06/07 03:39:07;;;;;;;15.48;6.53;;;12.70;99.90;;;;;;5109627;28;20380;-83
2022/06/07 03:41:33;;;;;;;13.00;5.90;;;13.60;99.90;;;;;;5108147;28;20032;-83
2022/06/07 03:43:59;;;;;;;9.85;5.15;;;12.70;99.90;;;;;;5108968;28;20087;-84
2022/06/07 03:46:27;;;;;;;8.68;5.03;;;12.70;99.90;;;;;;5107852;28;20050;-84
2022/06/07 03:48:54;;;;;;;8.95;5.13;;;12.70;99.90;;;;;;5091048;28;20059;-85
2022/06/07 03:51:25;;;;;;;10.77;5.10;;;12.60;99.90;;;;;;5092779;28;20099;-86
2022/06/07 03:53:51;;;;;;;9.27;5.43;;;13.80;99.90;;;;;;5092068;28;20157;-86
2022/06/07 03:56:17;;;;;;;14.13;5.68;;;13.60;99.90;;;;;;5093440;28;20087;-88
2022/06/07 03:58:44;;;;;;;11.57;6.35;;;12.50;99.90;;;;;;5075086;28;20138;-88
2022/06/07 04:01:15;;;;;;;10.73;5.22;;;12.50;99.90;;;;;;5077253;28;20050;-88
2022/06/07 04:03:46;;;;;;;9.68;5.32;;;12.40;99.90;;;;;;5075970;28;20449;-89
2022/06/07 04:06:27;;;;;;;11.80;5.82;;;12.30;99.90;;;;;;5076719;28;20081;-85
2022/06/07 04:08:54;;;;;;;7.05;5.30;;;12.50;99.90;;;;;;5094125;28;20055;-83
2022/06/07 04:11:23;;;;;;;10.82;6.03;;;12.20;99.90;;;;;;5076377;28;20099;-85
2022/06/07 04:13:50;;;;;;;12.48;5.35;;;12.40;99.90;;;;;;5094093;28;20086;-83
2022/06/07 04:16:19;;;;;;;11.80;5.35;;;12.50;99.90;;;;;;5075632;28;20031;-83
2022/06/07 04:18:45;;;;;;;9.32;5.45;;;12.30;99.90;;;;;;5077249;28;20620;-86
2022/06/07 04:21:12;;;;;;;11.32;5.30;;;12.80;99.90;;;;;;5094063;28;20102;-86
2022/06/07 04:23:37;;;;;;;13.70;5.43;;;12.10;99.90;;;;;;5093503;28;20044;-86
2022/06/07 04:26:07;;;;;;;13.38;5.70;;;12.20;99.90;;;;;;5113270;28;20057;-85
2022/06/07 04:28:33;;;;;;;12.65;5.55;;;11.90;99.90;;;;;;5092091;28;20047;-86
2022/06/07 04:30:58;;;;;;;7.45;4.80;;;12.70;99.90;;;;;;5061623;28;20043;-86
2022/06/07 04:33:24;;;;;;;9.35;4.25;;;13.20;99.90;;;;;;5092974;28;20043;-85
2022/06/07 04:35:50;;;;;;;11.40;4.20;;;11.90;99.90;;;;;;5077375;28;20099;-89
2022/06/07 04:38:15;;;;;;;16.00;4.03;;;12.10;99.90;;;;;;5077417;28;20036;-86
2022/06/07 04:40:43;;;;;;;7.78;4.25;;;11.80;99.90;;;;;;5060396;28;20047;-86
2022/06/07 04:43:11;;;;;;;6.85;3.58;;;11.90;99.90;;;;;;5093862;28;20137;-85
2022/06/07 04:45:39;;;;;;;7.10;4.07;;;11.90;99.90;;;;;;5110462;28;20095;-86
2022/06/07 04:48:06;;;;;;;8.60;4.43;;;12.30;99.90;;;;;;5095020;28;20069;-86
2022/06/07 04:50:32;;;;;;;9.80;4.35;;;11.90;99.90;;;;;;5093292;28;20044;-86
2022/06/07 04:52:58;;;;;;;9.98;4.55;;;11.90;99.90;;;;;;5095625;28;20062;-89
2022/06/07 04:55:23;;;;;;;13.48;4.65;;;13.20;99.90;;;;;;5061208;28;20048;-89
2022/06/07 04:57:49;;;;;;;6.25;3.78;;;12.20;99.90;;;;;;5060942;28;20086;-88
2022/06/07 05:00:18;;;;;;;12.93;4.43;;;12.80;99.90;;;;;;5095859;28;20044;-88
2022/06/07 05:02:47;;;;;;;10.93;4.55;;;12.10;99.90;;;;;;5061673;28;20067;-85
2022/06/07 05:05:15;;;;;;;8.18;3.85;;;12.10;99.90;;;;;;5077969;28;20124;-88
2022/06/07 05:07:41;;;;;;;9.68;4.30;;;12.60;99.90;;;;;;5107725;28;20048;-85
2022/06/07 05:10:09;;;;;;;7.72;3.95;;;12.70;99.90;;;;;;5109607;28;20040;-84
2022/06/07 05:12:36;;;;;;;9.18;4.22;;;12.20;99.90;;;;;;5090697;28;20048;-85
2022/06/07 05:15:04;;;;;;;6.55;4.10;;;12.70;99.90;;;;;;5108609;28;20039;-84
2022/06/07 05:17:30;;;;;;;6.50;3.95;;;12.20;99.90;;;;;;5109989;28;20043;-85
2022/06/07 05:19:57;;;;;;;12.40;4.90;;;12.20;99.90;;;;;;5089496;28;20134;-84
2022/06/07 05:22:24;;;;;;;9.80;4.18;;;12.20;99.90;;;;;;5107876;28;20047;-84
2022/06/07 05:24:50;;;;;;;6.85;4.32;;;12.20;99.90;;;;;;5107954;28;20048;-84
2022/06/07 05:27:20;;;;;;;9.00;4.47;;;12.80;99.90;;;;;;5109185;28;20043;-84
2022/06/07 05:29:47;;;;;;;14.18;4.80;;;12.30;99.90;;;;;;5090295;28;20092;-84
2022/06/07 05:32:13;;;;;;;6.75;3.65;;;12.30;99.90;;;;;;5107941;28;20055;-84
2022/06/07 05:34:39;;;;;;;9.55;4.28;;;12.30;99.90;;;;;;5091105;28;20040;-85
2022/06/07 05:37:05;;;;;;;9.15;3.67;;;12.30;99.90;;;;;;5089524;28;20049;-84
2022/06/07 05:39:31;;;;;;;7.93;4.20;;;12.40;99.90;;;;;;5091347;28;20430;-84
2022/06/07 05:41:57;;;;;;;13.20;4.90;;;13.40;99.90;;;;;;5107757;28;20036;-83
2022/06/07 05:44:24;;;;;;;10.80;3.67;;;12.40;99.90;;;;;;5108905;28;20044;-83
2022/06/07 05:46:52;;;;;;;8.05;3.83;;;12.40;99.90;;;;;;5108160;28;20051;-81
2022/06/07 05:49:18;;;;;;;8.43;3.20;;;12.40;99.90;;;;;;5107617;28;20036;-84
2022/06/07 05:51:44;;;;;;;8.70;4.03;;;12.60;99.90;;;;;;5073949;28;20394;-82
2022/06/07 05:54:12;;;;;;;7.57;3.63;;;13.10;99.90;;;;;;5107373;28;20475;-84
2022/06/07 05:56:38;;;;;;;8.68;3.05;;;12.20;99.90;;;;;;5109120;28;20052;-82
2022/06/07 05:59:06;;;;;;;12.35;3.05;;;12.60;99.90;;;;;;5107663;28;20039;-83
2022/06/07 06:01:33;;;;;;;12.20;2.88;;;12.20;99.90;;;;;;5090652;28;20052;-83
2022/06/07 06:03:59;;;;;;;4.38;2.40;;;12.10;99.90;;;;;;5089665;28;20050;-84
2022/06/07 06:06:25;;;;;;;5.75;2.78;;;12.10;99.90;;;;;;5072429;28;20490;-82
2022/06/07 06:11:36;;;;;;;6.32;2.22;;;12.00;99.90;;;;;;5088263;28;20546;-85
2022/06/07 06:14:02;;;;;;;7.25;2.67;;;12.00;99.90;;;;;;5108817;28;20442;-85
2022/06/07 06:16:28;;;;;;;8.98;2.28;;;11.90;99.90;;;;;;5055215;28;20082;-85
2022/06/07 06:18:57;;;;;;;6.65;2.15;;;11.90;99.90;;;;;;5089514;28;20040;-86
2022/06/07 06:21:26;;;;;;;9.50;2.47;;;12.10;99.90;;;;;;5073299;28;20134;-86
2022/06/07 06:23:52;;;;;;;6.57;2.00;;;11.90;99.90;;;;;;5107184;28;20390;-88
2022/06/07 06:26:19;;;;;;;4.93;2.15;;;12.40;99.90;;;;;;5089675;28;20047;-85
2022/06/07 06:28:45;;;;;;;4.35;1.70;;;12.90;99.90;;;;;;5106620;28;20046;-85
2022/06/07 06:31:12;;;;;;;4.13;1.38;;;12.50;99.90;;;;;;5089886;28;20051;-85
2022/06/07 06:33:41;;;;;;;3.22;1.30;;;11.90;99.90;;;;;;5087859;28;20502;-85
2022/06/07 06:36:09;;;;;;;2.90;1.05;;;12.00;99.90;;;;;;5089118;28;20461;-87
2022/06/07 06:38:35;;;;;;;4.22;1.13;;;11.90;99.90;;;;;;5072564;28;20047;-86
2022/06/07 06:41:12;;;;;;;4.07;1.00;;;12.00;99.90;;;;;;5088450;28;20066;-85
2022/06/07 06:43:38;;;;;;;2.20;0.77;;;11.90;99.90;;;;;;5090238;28;20079;-88
2022/06/07 06:46:13;;;;;;;3.13;1.02;;;12.20;99.90;;;;;;5070729;28;20087;-83
2022/06/07 06:48:39;;;;;;;5.00;1.20;;;12.00;99.90;;;;;;5089755;28;20066;-82
2022/06/07 06:51:10;;;;;;;4.60;1.50;;;13.20;99.90;;;;;;5107362;28;20089;-82
2022/06/07 06:53:36;;;;;;;5.63;1.30;;;12.50;99.90;;;;;;5087849;28;20045;-83
2022/06/07 06:56:02;;;;;;;3.45;1.02;;;12.20;99.90;;;;;;5108294;28;20521;-82
2022/06/07 06:58:28;;;;;;;2.22;1.20;;;12.10;99.90;;;;;;5106160;28;20031;-82
2022/06/07 07:01:00;;;;;;;3.90;1.20;;;12.70;99.90;;;;;;5107986;28;20036;-82
2022/06/07 07:03:26;;;;;;;3.35;1.25;;;12.50;99.90;;;;;;5087650;28;20051;-84
2022/06/07 07:05:52;;;;;;;6.20;1.70;;;12.60;99.90;;;;;;5088919;28;20047;-83
2022/06/07 07:08:18;;;;;;;6.60;1.50;;;12.80;99.90;;;;;;5107389;28;20028;-83
2022/06/07 07:10:44;;;;;;;5.30;1.77;;;12.80;99.90;;;;;;5105122;28;20547;-86
2022/06/07 07:13:10;;;;;;;4.18;1.20;;;13.00;99.90;;;;;;5089201;28;20103;-82
2022/06/07 07:15:35;;;;;;;6.82;1.25;;;13.20;99.90;;;;;;5105822;28;20051;-82
2022/06/07 07:18:01;;;;;;;4.97;1.35;;;12.90;99.90;;;;;;5107876;28;20392;-84
2022/06/07 07:20:27;;;;;;;4.68;1.23;;;13.00;99.90;;;;;;5070833;28;20121;-84
2022/06/07 07:22:53;;;;;;;7.05;1.55;;;13.10;99.90;;;;;;5107594;28;20633;-86
2022/06/07 07:25:19;;;;;;;9.27;1.30;;;13.10;99.90;;;;;;5088431;28;20482;-87
2022/06/07 07:27:44;;;;;;;8.30;1.60;;;14.00;99.90;;;;;;5087404;28;20406;-87
2022/06/07 07:30:11;;;;;;;10.98;1.40;;;13.10;99.90;;;;;;5039228;28;20368;-86
2022/06/07 07:32:36;;;;;;;7.35;1.75;;;13.20;99.90;;;;;;5069804;28;20044;-81
2022/06/07 07:35:02;;;;;;;6.75;1.35;;;13.20;99.90;;;;;;5088564;28;20121;-84
2022/06/07 07:37:28;;;;;;;3.17;0.80;;;13.30;99.90;;;;;;5087206;28;20058;-85
2022/06/07 07:39:54;;;;;;;11.48;1.52;;;13.40;99.90;;;;;;5107034;28;20427;-84
2022/06/07 07:42:20;;;;;;;6.82;1.35;;;13.50;99.90;;;;;;5106297;28;20522;-85
2022/06/07 07:44:46;;;;;;;12.82;1.33;;;13.60;99.90;;;;;;5087216;28;20052;-85
2022/06/07 07:47:12;;;;;;;4.93;1.35;;;14.40;99.90;;;;;;5072329;28;20051;-85
2022/06/07 07:49:37;;;;;;;6.85;1.13;;;13.60;99.90;;;;;;5088050;28;20474;-83
2022/06/07 07:52:04;;;;;;;7.55;1.10;;;13.60;99.90;;;;;;5090571;28;20093;-84
2022/06/07 07:54:29;;;;;;;8.88;1.15;;;13.60;99.90;;;;;;5073070;28;20162;-83
2022/06/07 07:56:55;;;;;;;9.07;1.50;;;13.50;99.90;;;;;;5074620;28;20086;-84
2022/06/07 07:59:22;;;;;;;9.38;1.15;;;13.40;99.90;;;;;;5090696;28;20052;-84
2022/06/07 08:01:49;;;;;;;6.32;1.00;;;13.40;99.90;;;;;;5090259;28;20118;-84
2022/06/07 08:04:15;;;;;;;3.47;0.57;;;13.30;99.90;;;;;;5108962;28;20133;-84
2022/06/07 08:06:41;;;;;;;4.60;0.60;;;13.30;99.90;;;;;;5088406;28;20495;-86
2022/06/07 08:09:09;;;;;;;3.65;0.80;;;13.30;99.90;;;;;;5076864;28;20040;-91
2022/06/07 08:11:36;;;;;;;6.32;0.95;;;13.20;99.90;;;;;;5075056;28;20444;-91
2022/06/07 08:14:05;;;;;;;7.63;0.80;;;13.40;99.90;;;;;;5059426;28;20089;-90
2022/06/07 08:16:31;;;;;;;8.68;1.15;;;12.60;99.90;;;;;;5075756;28;20039;-88
2022/06/07 08:18:57;;;;;;;7.43;0.93;;;13.30;99.90;;;;;;5074233;28;20035;-89
2022/06/07 08:21:26;;;;;;;7.40;1.38;;;14.10;99.90;;;;;;5110734;28;20100;-90
2022/06/07 08:23:54;;;;;;;6.95;1.10;;;13.40;99.90;;;;;;5090091;28;20032;-91
2022/06/07 08:26:21;;;;;;;5.75;0.90;;;13.80;99.90;;;;;;5091666;28;20085;-89
2022/06/07 08:28:47;;;;;;;7.80;1.00;;;13.60;99.90;;;;;;5091098;28;20123;-89
2022/06/07 08:31:24;;;;;;;2.05;0.63;;;13.00;99.90;;;;;;5092829;28;20047;-88
2022/06/07 08:39:21;;;;;;;4.22;0.52;;;14.10;99.90;;;;;;5090862;28;20494;-88
2022/06/07 08:41:51;;;;;;;5.47;0.63;;;14.30;99.90;;;;;;5072860;28;20044;-88
2022/06/07 08:44:39;;;;;;;6.68;1.27;;;14.30;99.90;;;;;;5091053;28;20147;-88
2022/06/07 08:47:41;;;;;;;7.45;0.95;;;14.50;99.90;;;;;;5109279;28;20069;-90
2022/06/07 08:50:13;;;;;;;4.00;0.70;;;14.60;99.90;;;;;;5085534;28;20051;-87
2022/06/07 08:52:39;;;;;;;7.20;0.98;;;14.90;99.90;;;;;;5109199;28;20040;-84
2022/06/07 08:55:17;;;;;;;5.00;0.80;;;14.80;99.90;;;;;;5089407;28;20142;-84
2022/06/07 08:57:59;;;;;;;5.32;0.98;;;14.90;99.90;;;;;;5111190;28;20055;-86
2022/06/07 09:00:35;;;;;;;3.78;0.60;;;15.00;99.90;;;;;;5094268;28;20283;-83
2022/06/07 09:03:03;;;;;;;4.15;0.82;;;14.90;99.90;;;;;;5110057;28;20044;-83
2022/06/07 09:05:29;;;;;;;4.22;0.60;;;14.90;99.90;;;;;;5111833;28;20045;-83
2022/06/07 09:07:55;;;;;;;4.10;1.00;;;15.00;99.90;;;;;;5110160;28;20035;-86
2022/06/07 09:13:19;;;;;;;6.88;1.95;;;15.00;99.90;;;;;;5092435;28;20127;-83
2022/06/07 09:15:48;;;;;;;16.50;1.88;;;15.00;99.90;;;;;;5108101;28;20042;-83
2022/06/07 09:18:15;;;;;;;4.70;1.05;;;15.00;99.90;;;;;;5091918;28;20043;-84
2022/06/07 09:20:45;;;;;;;5.78;0.88;;;14.90;99.90;;;;;;5109140;28;20470;-85
2022/06/07 09:23:34;;;;;;;3.80;0.95;;;14.90;99.90;;;;;;5110379;28;20034;-85
2022/06/07 09:26:24;;;;;;;5.22;0.88;;;14.80;99.90;;;;;;5093237;28;20121;-85
2022/06/07 09:29:20;;;;;;;7.07;0.73;;;14.70;99.90;;;;;;5109439;28;20122;-86
2022/06/07 09:31:47;;;;;;;4.47;0.80;;;14.50;99.90;;;;;;5091522;28;20062;-84
2022/06/07 09:34:28;;;;;;;3.97;0.60;;;14.50;99.90;;;;;;5091872;28;20102;-86
2022/06/07 09:37:02;;;;;;;3.97;0.80;;;14.20;99.90;;;;;;5090288;28;20051;-85
2022/06/07 09:39:39;;;;;;;2.65;0.52;;;14.10;99.90;;;;;;5109908;28;20487;-84
2022/06/07 09:42:24;;;;;;;4.38;0.73;;;14.00;99.90;;;;;;5090792;28;20164;-84
2022/06/07 09:45:00;;;;;;;5.85;1.20;;;14.40;99.90;;;;;;5091978;28;20134;-84
2022/06/07 09:47:30;;;;;;;4.30;0.85;;;13.90;99.90;;;;;;5092670;28;20044;-84
2022/06/07 09:50:00;;;;;;;3.42;0.52;;;13.40;99.90;;;;;;5108808;28;20036;-84
2022/06/07 09:52:31;;;;;;;4.40;0.82;;;14.40;99.90;;;;;;5091779;28;20048;-84
2022/06/07 09:55:16;;;;;;;5.90;0.60;;;14.40;99.90;;;;;;5090506;28;20491;-84
2022/06/07 09:57:52;;;;;;;6.35;0.93;;;14.10;99.90;;;;;;5090741;28;20089;-84
2022/06/07 10:00:36;;;;;;;6.50;0.73;;;14.30;99.90;;;;;;5110470;28;20035;-84
2022/06/07 10:03:20;;;;;;;5.03;0.82;;;15.00;99.90;;;;;;5090536;28;20046;-84
2022/06/07 10:06:01;;;;;;;4.43;1.05;;;14.70;99.90;;;;;;5074769;28;20043;-85
2022/06/07 10:08:44;;;;;;;8.90;1.10;;;14.90;99.90;;;;;;5110390;28;20058;-86
2022/06/07 10:11:50;;;;;;;9.45;1.67;;;15.10;99.90;;;;;;5072483;28;20050;-85
2022/06/07 10:14:25;;;;;;;5.03;0.80;;;15.20;99.90;;;;;;5090121;28;20052;-86
2022/06/07 10:16:57;;;;;;;8.75;0.98;;;15.20;99.90;;;;;;5090733;28;20135;-81
2022/06/07 10:19:43;;;;;;;6.00;0.75;;;15.10;99.90;;;;;;5089151;28;20487;-83
2022/06/07 10:22:15;;;;;;;7.40;0.90;;;15.00;99.90;;;;;;5090077;28;20514;-81
2022/06/07 10:24:56;;;;;;;7.68;1.00;;;14.90;99.90;;;;;;5089244;28;20126;-80
2022/06/07 10:27:55;;;;;;;8.00;0.98;;;14.90;99.90;;;;;;5108507;28;20048;-81
2022/06/07 10:30:55;;;;;;;4.72;0.75;;;15.00;99.90;;;;;;5109892;28;20051;-81
2022/06/07 10:33:33;;;;;;;4.53;0.70;;;15.10;99.90;;;;;;5089490;28;20547;-81
2022/06/07 10:36:08;;;;;;;8.05;0.85;;;15.20;99.90;;;;;;5108591;28;20047;-81
2022/06/07 10:38:54;;;;;;;3.30;1.00;;;15.20;99.90;;;;;;5109271;28;20538;-81
2022/06/07 10:41:29;;;;;;;2.63;1.05;;;15.10;99.90;;;;;;5107179;28;20491;-85
2022/06/07 10:43:58;;;;;;;4.70;0.70;;;15.10;99.90;;;;;;5074212;28;20384;-82
2022/06/07 10:46:25;;;;;;;3.33;1.15;;;15.00;99.90;;;;;;5108634;28;20043;-82
2022/06/07 10:49:12;;;;;;;4.07;0.88;;;15.00;99.90;;;;;;5089856;28;20040;-84
2022/06/07 10:54:54;;;;;;;;;;;15.10;99.90;;;;;;5090297;28;20505;-80
2022/06/07 10:57:38;;;;;;;5.13;0.63;;;14.80;99.90;;;;;;5109173;28;19919;-81
2022/06/07 11:00:30;;;;;;;4.18;0.75;;;14.90;99.90;;;;;;5091316;28;20085;-81
2022/06/07 11:03:05;;;;;;;4.97;1.25;;;14.90;99.90;;;;;;5107106;28;20547;-81
2022/06/07 11:11:29;;;;;;;4.10;0.88;;;14.70;99.90;;;;;;5106737;28;20405;-81
2022/06/07 11:13:58;;;;;;;5.05;0.75;;;14.90;99.90;;;;;;5109658;28;20050;-81
2022/06/07 11:16:42;;;;;;;3.58;0.60;;;14.90;99.90;;;;;;5090704;28;20047;-85
2022/06/07 11:19:09;;;;;;;6.75;1.27;;;15.10;99.90;;;;;;5108486;28;20469;-85
2022/06/07 11:21:40;;;;;;;4.95;0.77;;;15.20;99.90;;;;;;5074879;28;20032;-84
2022/06/07 11:24:18;;;;;;;4.93;0.70;;;15.40;99.90;;;;;;5106432;28;20131;-82
2022/06/07 11:26:50;;;;;;;5.22;0.93;;;15.60;99.90;;;;;;5108512;28;20090;-85
2022/06/07 11:29:20;;;;;;;7.43;1.17;;;15.70;99.90;;;;;;5088998;28;20055;-86
2022/06/07 11:31:46;;;;;;;5.30;1.15;;;15.80;99.90;;;;;;5089119;28;20510;-86
2022/06/07 11:34:22;;;;;;;5.38;0.90;;;15.90;99.90;;;;;;5073393;28;20047;-87
2022/06/07 11:36:49;;;;;;;4.72;0.65;;;16.00;99.90;;;;;;5071624;28;20040;-85
2022/06/07 11:39:18;;;;;;;4.38;0.88;;;16.10;99.90;;;;;;5090864;28;20114;-84
2022/06/07 11:41:48;;;;;;;3.42;0.45;;;16.10;99.90;;;;;;5088858;28;20035;-87
2022/06/07 11:44:16;;;;;;;6.40;0.70;;;16.30;99.90;;;;;;5072715;28;20051;-87
2022/06/07 11:46:51;;;;;;;4.60;0.90;;;16.40;99.90;;;;;;5072463;28;20039;-89
2022/06/07 11:49:23;;;;;;;1.67;0.40;;;16.60;99.90;;;;;;5072254;28;20048;-87
2022/06/07 11:52:13;;;;;;;3.83;0.43;;;16.70;99.90;;;;;;5073580;28;20597;-87
2022/06/07 11:54:42;;;;;;;3.25;0.60;;;16.70;99.90;;;;;;5088076;28;20052;-86
2022/06/07 11:57:33;;;;;;;3.08;0.40;;;16.60;99.90;;;;;;5088723;28;20431;-87
2022/06/07 12:00:16;;;;;;;4.10;0.63;;;16.60;99.90;;;;;;5089778;28;20035;-87
2022/06/07 12:03:03;;;;;;;5.25;0.90;;;16.50;99.90;;;;;;5087382;28;20039;-87
2022/06/07 12:05:47;;;;;;;1.40;0.40;;;16.50;99.90;;;;;;5087578;28;20090;-86
2022/06/07 12:08:21;;;;;;;7.35;0.73;;;16.50;99.90;;;;;;5087628;28;20143;-86
2022/06/07 12:11:05;;;;;;;3.67;0.85;;;15.90;99.90;;;;;;5085605;28;20122;-83
2022/06/07 12:13:52;;;;;;;4.57;0.90;;;16.40;99.90;;;;;;5106030;28;20487;-86
2022/06/07 12:16:56;;;;;;;2.53;0.50;;;16.30;99.90;;;;;;5086389;28;20041;-86
2022/06/07 12:19:25;;;;;;;1.85;0.30;;;16.20;99.90;;;;;;5098836;28;20059;-85
2022/06/07 12:21:59;;;;;;;2.53;0.57;;;16.10;99.90;;;;;;5106377;28;20483;-86
2022/06/07 12:24:26;;;;;;;7.30;0.77;;;16.10;99.90;;;;;;5085939;28;20040;-87
2022/06/07 12:26:52;;;;;;;3.45;0.40;;;16.10;99.90;;;;;;5087389;28;20044;-85
2022/06/07 12:29:28;;;;;;;3.85;0.63;;;16.50;99.90;;;;;;5086902;28;20051;-85
2022/06/07 12:31:57;;;;;;;5.38;0.60;;;16.40;99.90;;;;;;5107475;28;20052;-85
2022/06/07 12:34:29;;;;;;;1.95;0.47;;;16.60;99.90;;;;;;5075351;28;20512;-85
2022/06/07 12:36:57;;;;;;;4.22;0.65;;;16.80;99.90;;;;;;5107586;28;20484;-84
2022/06/07 12:39:24;;;;;;;2.47;0.40;;;16.80;99.90;;;;;;5110382;28;20079;-86
2022/06/07 12:42:03;;;;;;;4.88;0.88;;;16.90;99.90;;;;;;5108179;28;20040;-83
2022/06/07 12:44:36;;;;;;;2.95;0.70;;;16.80;99.90;;;;;;5109028;28;20384;-84
2022/06/07 12:47:02;;;;;;;;;;;16.80;99.90;;;;;;5110723;28;20508;-84
2022/06/07 12:49:41;;;;;;;4.78;0.75;;;16.70;99.90;;;;;;5088899;28;20002;-83
2022/06/07 12:52:15;;;;;;;1.90;0.40;;;16.80;99.90;;;;;;5109662;28;20040;-84
2022/06/07 12:54:48;;;;;;;5.93;0.60;;;16.90;99.90;;;;;;5107396;28;20054;-83
2022/06/07 12:57:43;;;;;;;4.68;0.73;;;16.90;99.90;;;;;;5108570;28;20111;-83
2022/06/07 13:00:17;;;;;;;4.60;0.70;;;17.10;99.90;;;;;;5109674;28;20096;-84
2022/06/07 13:02:55;;;;;;;2.17;0.45;;;17.40;99.90;;;;;;5106796;28;20490;-82
2022/06/07 13:05:28;;;;;;;4.57;0.80;;;17.70;99.90;;;;;;5108982;28;20043;-84
2022/06/07 13:07:56;;;;;;;5.28;0.80;;;17.90;99.90;;;;;;5108431;28;20394;-84
2022/06/07 13:10:28;;;;;;;4.65;0.88;;;17.90;99.90;;;;;;5107701;28;20039;-86
2022/06/07 13:12:59;;;;;;;4.82;0.98;;;17.80;99.90;;;;;;5109800;28;20436;-85
2022/06/07 13:16:00;;;;;;;4.28;0.77;;;17.70;99.90;;;;;;5106799;28;20122;-86
2022/06/07 13:18:32;;;;;;;4.30;0.70;;;17.80;99.90;;;;;;5108359;28;20043;-85
2022/06/07 13:21:36;;;;;;;3.90;1.08;;;17.70;99.90;;;;;;5089911;28;20047;-86
2022/06/07 13:24:01;;;;;;;1.33;0.60;;;17.80;99.90;;;;;;5088945;28;20051;-84
2022/06/07 13:26:43;;;;;;;4.10;0.70;;;17.80;99.90;;;;;;5090222;28;20105;-85
2022/06/07 13:29:29;;;;;;;3.10;0.70;;;17.90;99.90;;;;;;5107579;28;20402;-85
2022/06/07 13:32:20;;;;;;;2.45;0.60;;;18.00;99.90;;;;;;5106603;28;20043;-85